createdAt,value
2018-06-29T00:00:06.889Z,4.00
2018-06-29T00:01:06.899Z,4.00
2018-06-29T00:02:06.902Z,0.00
2018-06-29T00:03:06.910Z,4.00
2018-06-29T00:04:06.911Z,4.00
2018-06-29T00:05:06.918Z,4.00
2018-06-29T00:06:06.923Z,0.00
2018-06-29T00:07:06.926Z,4.00
2018-06-29T00:08:06.938Z,4.00
2018-06-29T00:09:06.934Z,4.00
2018-06-29T00:10:06.941Z,4.00
2018-06-29T00:11:06.948Z,4.00
2018-06-29T00:12:06.954Z,0.00
2018-06-29T00:13:06.951Z,4.00
2018-06-29T00:14:06.967Z,4.00
2018-06-29T00:15:06.968Z,4.00
2018-06-29T00:16:06.966Z,4.00
2018-06-29T00:17:06.983Z,4.00
2018-06-29T00:18:06.985Z,4.00
2018-06-29T00:19:07.708Z,4.00
2018-06-29T00:20:06.989Z,4.00
2018-06-29T00:21:06.997Z,4.00
2018-06-29T00:22:07.008Z,4.00
2018-06-29T00:23:07.054Z,4.00
2018-06-29T00:24:07.008Z,4.00
2018-06-29T00:25:07.021Z,4.00
2018-06-29T00:26:07.026Z,4.00
2018-06-29T00:27:07.027Z,4.00
2018-06-29T00:28:08.434Z,4.00
2018-06-29T00:29:08.471Z,4.00
2018-06-29T00:30:08.463Z,4.00
2018-06-29T00:31:07.678Z,4.00
2018-06-29T00:32:08.473Z,4.00
2018-06-29T00:33:07.441Z,4.00
2018-06-29T00:34:07.568Z,4.00
2018-06-29T00:35:07.867Z,0.00
2018-06-29T00:36:08.411Z,4.00
2018-06-29T00:37:07.447Z,4.00
2018-06-29T00:38:07.093Z,4.00
2018-06-29T00:39:07.087Z,4.00
2018-06-29T00:40:07.116Z,4.00
2018-06-29T00:41:07.095Z,4.00
2018-06-29T00:42:07.259Z,4.00
2018-06-29T00:43:07.106Z,4.00
2018-06-29T00:44:07.116Z,4.00
2018-06-29T00:45:07.115Z,4.00
2018-06-29T00:46:07.125Z,4.00
2018-06-29T00:47:07.126Z,4.00
2018-06-29T00:48:07.140Z,0.00
2018-06-29T00:49:07.141Z,4.00
2018-06-29T00:50:07.151Z,4.00
2018-06-29T00:51:07.153Z,4.00
2018-06-29T00:52:07.159Z,4.00
2018-06-29T00:53:07.157Z,4.00
2018-06-29T00:54:07.168Z,4.00
2018-06-29T00:55:07.171Z,4.00
2018-06-29T00:56:07.719Z,4.00
2018-06-29T00:57:07.182Z,4.00
2018-06-29T00:58:07.178Z,4.00
2018-06-29T00:59:07.203Z,4.00
2018-06-29T01:00:07.196Z,4.00
2018-06-29T01:01:07.195Z,4.00
2018-06-29T01:02:07.215Z,4.00
2018-06-29T01:03:07.204Z,4.00
2018-06-29T01:04:07.211Z,4.00
2018-06-29T01:05:07.221Z,0.00
2018-06-29T01:06:07.222Z,4.00
2018-06-29T01:07:07.731Z,4.00
2018-06-29T01:08:07.253Z,4.00
2018-06-29T01:09:07.235Z,4.00
2018-06-29T01:10:07.248Z,4.00
2018-06-29T01:11:07.242Z,4.00
2018-06-29T01:12:07.253Z,4.00
2018-06-29T01:13:07.258Z,4.00
2018-06-29T01:14:07.259Z,4.00
2018-06-29T01:15:07.269Z,4.00
2018-06-29T01:16:07.274Z,4.00
2018-06-29T01:17:07.270Z,4.00
2018-06-29T01:18:07.281Z,4.00
2018-06-29T01:19:07.282Z,4.00
2018-06-29T01:20:07.283Z,4.00
2018-06-29T01:21:07.297Z,4.00
2018-06-29T01:22:07.304Z,4.00
2018-06-29T01:23:07.302Z,4.00
2018-06-29T01:24:07.306Z,4.00
2018-06-29T01:25:07.320Z,4.00
2018-06-29T01:26:07.317Z,4.00
2018-06-29T01:27:07.333Z,4.00
2018-06-29T01:28:07.327Z,4.00
2018-06-29T01:29:07.329Z,4.00
2018-06-29T01:30:07.336Z,4.00
2018-06-29T01:31:07.346Z,4.00
2018-06-29T01:32:07.340Z,4.00
2018-06-29T01:33:07.353Z,4.00
2018-06-29T01:34:07.352Z,4.00
2018-06-29T01:35:07.360Z,4.00
2018-06-29T01:36:07.368Z,4.00
2018-06-29T01:37:07.364Z,4.00
2018-06-29T01:38:07.372Z,4.00
2018-06-29T01:39:07.385Z,4.00
2018-06-29T01:40:07.389Z,4.00
2018-06-29T01:41:07.413Z,4.00
2018-06-29T01:42:07.396Z,4.00
2018-06-29T01:43:07.394Z,4.00
2018-06-29T01:44:07.401Z,4.00
2018-06-29T01:45:07.424Z,4.00
2018-06-29T01:46:07.420Z,4.00
2018-06-29T01:47:07.418Z,4.00
2018-06-29T01:48:07.426Z,4.00
2018-06-29T01:49:07.422Z,4.00
2018-06-29T01:50:07.429Z,4.00
2018-06-29T01:51:07.431Z,4.00
2018-06-29T01:52:07.466Z,4.00
2018-06-29T01:53:07.446Z,4.00
2018-06-29T01:54:07.447Z,4.00
2018-06-29T01:55:07.454Z,4.00
2018-06-29T01:56:07.453Z,4.00
2018-06-29T01:57:07.467Z,4.00
2018-06-29T01:58:07.462Z,4.00
2018-06-29T01:59:07.477Z,4.00
2018-06-29T02:00:09.049Z,4.00
2018-06-29T02:01:08.071Z,4.00
2018-06-29T02:02:08.996Z,4.00
2018-06-29T02:03:07.491Z,4.00
2018-06-29T02:04:07.490Z,4.00
2018-06-29T02:05:07.501Z,4.00
2018-06-29T02:06:07.503Z,4.00
2018-06-29T02:07:07.510Z,4.00
2018-06-29T02:08:07.530Z,0.00
2018-06-29T02:09:07.514Z,4.00
2018-06-29T02:10:07.517Z,0.00
2018-06-29T02:11:08.256Z,0.00
2018-06-29T02:12:07.524Z,0.00
2018-06-29T02:13:07.536Z,0.00
2018-06-29T02:14:07.539Z,0.00
2018-06-29T02:15:07.544Z,0.00
2018-06-29T02:16:07.543Z,0.00
2018-06-29T02:17:07.550Z,0.00
2018-06-29T02:18:07.553Z,0.00
2018-06-29T02:19:07.559Z,0.00
2018-06-29T02:20:07.560Z,0.00
2018-06-29T02:21:07.568Z,0.00
2018-06-29T02:22:07.566Z,0.00
2018-06-29T02:23:07.582Z,0.00
2018-06-29T02:24:07.575Z,0.00
2018-06-29T02:25:07.591Z,0.00
2018-06-29T02:26:07.584Z,4.00
2018-06-29T02:27:07.592Z,4.00
2018-06-29T02:28:07.596Z,4.00
2018-06-29T02:29:07.620Z,4.00
2018-06-29T02:30:07.646Z,4.00
2018-06-29T02:31:07.621Z,4.00
2018-06-29T02:32:07.614Z,4.00
2018-06-29T02:33:07.618Z,4.00
2018-06-29T02:34:07.626Z,4.00
2018-06-29T02:35:07.627Z,4.00
2018-06-29T02:36:07.633Z,4.00
2018-06-29T02:37:07.633Z,4.00
2018-06-29T02:38:07.643Z,8.00
2018-06-29T02:39:07.642Z,4.00
2018-06-29T02:40:07.646Z,8.00
2018-06-29T02:41:07.656Z,8.00
2018-06-29T02:42:07.654Z,4.00
2018-06-29T02:43:07.666Z,8.00
2018-06-29T02:44:07.672Z,12.00
2018-06-29T02:45:07.671Z,12.00
2018-06-29T02:46:07.684Z,12.00
2018-06-29T02:47:07.672Z,12.00
2018-06-29T02:48:07.685Z,16.00
2018-06-29T02:49:07.686Z,16.00
2018-06-29T02:50:07.693Z,16.00
2018-06-29T02:51:07.697Z,16.00
2018-06-29T02:52:07.701Z,20.00
2018-06-29T02:53:07.699Z,20.00
2018-06-29T02:54:07.705Z,28.00
2018-06-29T02:55:07.718Z,28.00
2018-06-29T02:56:07.709Z,32.00
2018-06-29T02:57:07.721Z,32.00
2018-06-29T02:58:07.727Z,36.00
2018-06-29T02:59:07.739Z,44.00
2018-06-29T03:00:07.739Z,48.00
2018-06-29T03:01:07.791Z,52.00
2018-06-29T03:02:07.799Z,56.00
2018-06-29T03:03:07.799Z,60.00
2018-06-29T03:04:07.790Z,68.00
2018-06-29T03:05:07.806Z,72.00
2018-06-29T03:06:07.761Z,80.00
2018-06-29T03:07:07.767Z,84.00
2018-06-29T03:08:07.767Z,92.00
2018-06-29T03:09:07.765Z,100.00
2018-06-29T03:10:07.776Z,108.00
2018-06-29T03:11:07.772Z,116.00
2018-06-29T03:12:07.787Z,124.00
2018-06-29T03:13:07.779Z,132.00
2018-06-29T03:14:07.783Z,144.00
2018-06-29T03:15:07.805Z,156.00
2018-06-29T03:16:07.794Z,168.00
2018-06-29T03:17:07.807Z,176.00
2018-06-29T03:18:07.802Z,192.00
2018-06-29T03:19:07.811Z,204.00
2018-06-29T03:20:07.818Z,216.00
2018-06-29T03:21:07.825Z,228.00
2018-06-29T03:22:07.825Z,244.00
2018-06-29T03:23:07.825Z,256.00
2018-06-29T03:24:07.835Z,272.00
2018-06-29T03:25:07.844Z,284.00
2018-06-29T03:26:07.831Z,300.00
2018-06-29T03:27:07.844Z,316.00
2018-06-29T03:28:07.848Z,328.00
2018-06-29T03:29:07.848Z,348.00
2018-06-29T03:30:07.854Z,360.00
2018-06-29T03:31:07.860Z,380.00
2018-06-29T03:32:07.862Z,396.00
2018-06-29T03:33:07.885Z,416.00
2018-06-29T03:34:07.864Z,428.00
2018-06-29T03:35:07.881Z,448.00
2018-06-29T03:36:07.872Z,464.00
2018-06-29T03:37:07.883Z,484.00
2018-06-29T03:38:07.884Z,504.00
2018-06-29T03:39:07.892Z,544.00
2018-06-29T03:40:07.887Z,564.00
2018-06-29T03:41:07.901Z,572.00
2018-06-29T03:42:07.900Z,596.00
2018-06-29T03:43:07.904Z,624.00
2018-06-29T03:44:07.916Z,680.00
2018-06-29T03:45:07.912Z,720.00
2018-06-29T03:46:07.919Z,684.00
2018-06-29T03:47:07.918Z,820.00
2018-06-29T03:48:07.917Z,1096.00
2018-06-29T03:49:07.929Z,1500.00
2018-06-29T03:50:07.934Z,1472.00
2018-06-29T03:51:07.931Z,1236.00
2018-06-29T03:52:07.938Z,964.00
2018-06-29T03:53:07.947Z,856.00
2018-06-29T03:54:07.951Z,856.00
2018-06-29T03:55:07.950Z,888.00
2018-06-29T03:56:07.955Z,896.00
2018-06-29T03:57:07.960Z,924.00
2018-06-29T03:58:07.964Z,936.00
2018-06-29T03:59:07.968Z,960.00
2018-06-29T04:00:07.975Z,1004.00
2018-06-29T04:01:07.978Z,1280.00
2018-06-29T04:02:07.982Z,1996.00
2018-06-29T04:03:08.782Z,2892.00
2018-06-29T04:04:07.988Z,3284.00
2018-06-29T04:05:07.999Z,3380.00
2018-06-29T04:06:07.996Z,3504.00
2018-06-29T04:07:08.008Z,3676.00
2018-06-29T04:08:08.014Z,3836.00
2018-06-29T04:09:08.018Z,3956.00
2018-06-29T04:10:08.024Z,4056.00
2018-06-29T04:11:08.030Z,4188.00
2018-06-29T04:12:08.024Z,4348.00
2018-06-29T04:13:08.036Z,4516.00
2018-06-29T04:14:08.038Z,4632.00
2018-06-29T04:15:08.046Z,4672.00
2018-06-29T04:16:08.054Z,4736.00
2018-06-29T04:17:08.058Z,4968.00
2018-06-29T04:18:08.072Z,5180.00
2018-06-29T04:19:08.066Z,5352.00
2018-06-29T04:20:08.074Z,5488.00
2018-06-29T04:21:08.078Z,5636.00
2018-06-29T04:22:08.091Z,5772.00
2018-06-29T04:23:08.089Z,5924.00
2018-06-29T04:24:08.107Z,6076.00
2018-06-29T04:25:08.105Z,6268.00
2018-06-29T04:26:08.115Z,6396.00
2018-06-29T04:27:08.126Z,6508.00
2018-06-29T04:28:08.154Z,6656.00
2018-06-29T04:29:08.139Z,6880.00
2018-06-29T04:30:08.149Z,7128.00
2018-06-29T04:31:08.163Z,7188.00
2018-06-29T04:32:08.161Z,7264.00
2018-06-29T04:33:08.177Z,7384.00
2018-06-29T04:34:08.187Z,7536.00
2018-06-29T04:35:08.198Z,7572.00
2018-06-29T04:36:08.207Z,5756.00
2018-06-29T04:37:08.217Z,2992.00
2018-06-29T04:38:08.221Z,1684.00
2018-06-29T04:39:08.238Z,1664.00
2018-06-29T04:40:08.232Z,1656.00
2018-06-29T04:41:08.254Z,1680.00
2018-06-29T04:42:08.259Z,1688.00
2018-06-29T04:43:08.273Z,1704.00
2018-06-29T04:44:08.284Z,1704.00
2018-06-29T04:45:08.281Z,1720.00
2018-06-29T04:46:08.294Z,1732.00
2018-06-29T04:47:08.303Z,1740.00
2018-06-29T04:48:08.313Z,1752.00
2018-06-29T04:49:08.312Z,1764.00
2018-06-29T04:50:08.329Z,1776.00
2018-06-29T04:51:08.332Z,1796.00
2018-06-29T04:52:08.346Z,1812.00
2018-06-29T04:53:08.356Z,1828.00
2018-06-29T04:54:08.368Z,1832.00
2018-06-29T04:55:08.363Z,1852.00
2018-06-29T04:56:08.371Z,1872.00
2018-06-29T04:57:08.381Z,1972.00
2018-06-29T04:58:08.388Z,1908.00
2018-06-29T04:59:08.397Z,1928.00
2018-06-29T05:00:09.305Z,1936.00
2018-06-29T05:01:08.409Z,1952.00
2018-06-29T05:02:08.410Z,1984.00
2018-06-29T05:03:08.424Z,2004.00
2018-06-29T05:04:08.431Z,2032.00
2018-06-29T05:05:08.439Z,2056.00
2018-06-29T05:06:08.440Z,2076.00
2018-06-29T05:07:08.448Z,2100.00
2018-06-29T05:08:08.451Z,2140.00
2018-06-29T05:09:08.462Z,2204.00
2018-06-29T05:10:08.465Z,2228.00
2018-06-29T05:11:08.476Z,2296.00
2018-06-29T05:12:08.477Z,3384.00
2018-06-29T05:13:08.488Z,7452.00
2018-06-29T05:14:08.488Z,11772.00
2018-06-29T05:15:08.514Z,13664.00
2018-06-29T05:16:08.503Z,13792.00
2018-06-29T05:17:08.508Z,13824.00
2018-06-29T05:18:08.523Z,14016.00
2018-06-29T05:19:08.518Z,14304.00
2018-06-29T05:20:08.530Z,14464.00
2018-06-29T05:21:08.534Z,14656.00
2018-06-29T05:22:08.548Z,14752.00
2018-06-29T05:23:08.552Z,14880.00
2018-06-29T05:24:08.567Z,14624.00
2018-06-29T05:25:08.567Z,14528.00
2018-06-29T05:26:08.582Z,14464.00
2018-06-29T05:27:08.583Z,14464.00
2018-06-29T05:28:08.610Z,14720.00
2018-06-29T05:29:08.603Z,15040.00
2018-06-29T05:30:08.626Z,15072.00
2018-06-29T05:31:08.631Z,15232.00
2018-06-29T05:32:08.647Z,15392.00
2018-06-29T05:33:08.646Z,15424.00
2018-06-29T05:34:08.655Z,15648.00
2018-06-29T05:35:08.678Z,15680.00
2018-06-29T05:36:08.683Z,15840.00
2018-06-29T05:37:08.694Z,15840.00
2018-06-29T05:38:08.701Z,15936.00
2018-06-29T05:39:08.732Z,16544.00
2018-06-29T05:40:08.729Z,16704.00
2018-06-29T05:41:08.751Z,17056.00
2018-06-29T05:42:08.772Z,17152.00
2018-06-29T05:43:08.776Z,17056.00
2018-06-29T05:44:08.786Z,17056.00
2018-06-29T05:45:08.800Z,17024.00
2018-06-29T05:46:08.824Z,17120.00
2018-06-29T05:47:08.824Z,17184.00
2018-06-29T05:48:08.843Z,17376.00
2018-06-29T05:49:08.865Z,17632.00
2018-06-29T05:50:08.867Z,17760.00
2018-06-29T05:51:08.879Z,17824.00
2018-06-29T05:52:08.895Z,17888.00
2018-06-29T05:53:08.980Z,18304.00
2018-06-29T05:54:08.923Z,18016.00
2018-06-29T05:55:08.941Z,18208.00
2018-06-29T05:56:11.833Z,18528.00
2018-06-29T05:57:16.816Z,19008.00
2018-06-29T05:58:09.202Z,19104.00
2018-06-29T05:59:09.013Z,19136.00
2018-06-29T06:00:09.016Z,19040.00
2018-06-29T06:01:09.035Z,18976.00
2018-06-29T06:02:09.095Z,18976.00
2018-06-29T06:03:10.826Z,19008.00
2018-06-29T06:04:11.823Z,19328.00
2018-06-29T06:05:10.824Z,19808.00
2018-06-29T06:06:10.833Z,19712.00
2018-06-29T06:07:09.130Z,19776.00
2018-06-29T06:08:09.148Z,19808.00
2018-06-29T06:09:09.162Z,19744.00
2018-06-29T06:10:11.940Z,19744.00
2018-06-29T06:11:09.194Z,19808.00
2018-06-29T06:12:12.819Z,19744.00
2018-06-29T06:13:16.831Z,20000.00
2018-06-29T06:14:09.243Z,20224.00
2018-06-29T06:15:09.264Z,20288.00
2018-06-29T06:16:11.918Z,20576.00
2018-06-29T06:17:09.291Z,20480.00
2018-06-29T06:18:10.832Z,20384.00
2018-06-29T06:19:09.336Z,20288.00
2018-06-29T06:20:11.335Z,20352.00
2018-06-29T06:21:15.331Z,20576.00
2018-06-29T06:22:10.404Z,20512.00
2018-06-29T06:23:09.399Z,20896.00
2018-06-29T06:24:12.337Z,20832.00
2018-06-29T06:25:09.442Z,20864.00
2018-06-29T06:26:09.452Z,20896.00
2018-06-29T06:27:12.336Z,21120.00
2018-06-29T06:28:09.504Z,21856.00
2018-06-29T06:29:09.509Z,21088.00
2018-06-29T06:30:11.328Z,21056.00
2018-06-29T06:31:11.326Z,20896.00
2018-06-29T06:32:11.336Z,20864.00
2018-06-29T06:33:09.659Z,21024.00
2018-06-29T06:34:11.337Z,21216.00
2018-06-29T06:35:10.617Z,21792.00
2018-06-29T06:36:09.647Z,21632.00
2018-06-29T06:37:12.339Z,21536.00
2018-06-29T06:38:09.673Z,21248.00
2018-06-29T06:39:09.806Z,21184.00
2018-06-29T06:40:09.729Z,20832.00
2018-06-29T06:41:12.335Z,21088.00
2018-06-29T06:42:12.619Z,20864.00
2018-06-29T06:43:13.131Z,20320.00
2018-06-29T06:44:10.971Z,20544.00
2018-06-29T06:45:11.345Z,20864.00
2018-06-29T06:46:12.341Z,20224.00
2018-06-29T06:47:12.340Z,20032.00
2018-06-29T06:48:10.872Z,19936.00
2018-06-29T06:49:09.891Z,20128.00
2018-06-29T06:50:12.845Z,20320.00
2018-06-29T06:51:12.841Z,20512.00
2018-06-29T06:52:10.953Z,20448.00
2018-06-29T06:53:12.849Z,20352.00
2018-06-29T06:54:10.985Z,20416.00
2018-06-29T06:55:11.859Z,20320.00
2018-06-29T06:56:12.835Z,20480.00
2018-06-29T06:57:11.869Z,20416.00
2018-06-29T06:58:12.846Z,20384.00
2018-06-29T06:59:12.860Z,20320.00
2018-06-29T07:00:21.847Z,20320.00
2018-06-29T07:01:11.121Z,20448.00
2018-06-29T07:02:12.839Z,20576.00
2018-06-29T07:03:11.182Z,20512.00
2018-06-29T07:04:11.191Z,20640.00
2018-06-29T07:05:11.862Z,20768.00
2018-06-29T07:06:13.869Z,20672.00
2018-06-29T07:07:15.851Z,20800.00
2018-06-29T07:08:17.850Z,20800.00
2018-06-29T07:09:11.302Z,20704.00
2018-06-29T07:10:17.850Z,20448.00
2018-06-29T07:11:11.338Z,20224.00
2018-06-29T07:12:11.853Z,20256.00
2018-06-29T07:13:11.374Z,20224.00
2018-06-29T07:14:12.365Z,20384.00
2018-06-29T07:15:12.352Z,20672.00
2018-06-29T07:16:26.357Z,20736.00
2018-06-29T07:17:11.465Z,21600.00
2018-06-29T07:18:14.370Z,20704.00
2018-06-29T07:19:13.366Z,20736.00
2018-06-29T07:20:12.368Z,20704.00
2018-06-29T07:21:26.403Z,20768.00
2018-06-29T07:22:14.357Z,20640.00
2018-06-29T07:23:10.598Z,20672.00
2018-06-29T07:24:10.611Z,20800.00
2018-06-29T07:25:11.629Z,20800.00
2018-06-29T07:26:12.376Z,20832.00
2018-06-29T07:27:12.421Z,20768.00
2018-06-29T07:28:12.377Z,20800.00
2018-06-29T07:29:13.357Z,20928.00
2018-06-29T07:30:13.390Z,20800.00
2018-06-29T07:31:12.363Z,20832.00
2018-06-29T07:32:12.361Z,20512.00
2018-06-29T07:33:10.803Z,20608.00
2018-06-29T07:34:10.829Z,20608.00
2018-06-29T07:35:10.868Z,20800.00
2018-06-29T07:36:10.869Z,20736.00
2018-06-29T07:37:10.897Z,20672.00
2018-06-29T07:38:10.916Z,20448.00
2018-06-29T07:39:10.944Z,20576.00
2018-06-29T07:40:10.967Z,20832.00
2018-06-29T07:41:10.980Z,20480.00
2018-06-29T07:42:11.009Z,19968.00
2018-06-29T07:43:11.024Z,20256.00
2018-06-29T07:44:11.046Z,20064.00
2018-06-29T07:45:11.855Z,19680.00
2018-06-29T07:46:11.090Z,19424.00
2018-06-29T07:47:11.120Z,19488.00
2018-06-29T07:48:11.133Z,19616.00
2018-06-29T07:49:11.164Z,19456.00
2018-06-29T07:50:11.202Z,19424.00
2018-06-29T07:51:11.215Z,19136.00
2018-06-29T07:52:11.231Z,19040.00
2018-06-29T07:53:11.282Z,19168.00
2018-06-29T07:54:11.274Z,19712.00
2018-06-29T07:55:11.303Z,20000.00
2018-06-29T07:56:11.380Z,19648.00
2018-06-29T07:57:11.361Z,19328.00
2018-06-29T07:58:11.477Z,19136.00
2018-06-29T07:59:11.389Z,19200.00
2018-06-29T08:00:11.413Z,19232.00
2018-06-29T08:01:11.433Z,19360.00
2018-06-29T08:02:11.485Z,19232.00
2018-06-29T08:03:11.484Z,19392.00
2018-06-29T08:04:11.509Z,19872.00
2018-06-29T08:05:11.541Z,18944.00
2018-06-29T08:06:11.571Z,18912.00
2018-06-29T08:07:11.574Z,18720.00
2018-06-29T08:08:11.599Z,18400.00
2018-06-29T08:09:11.619Z,18112.00
2018-06-29T08:10:11.647Z,17792.00
2018-06-29T08:11:11.667Z,17632.00
2018-06-29T08:12:11.695Z,17600.00
2018-06-29T08:13:11.714Z,17248.00
2018-06-29T08:14:11.743Z,17152.00
2018-06-29T08:15:11.764Z,17184.00
2018-06-29T08:16:11.784Z,17152.00
2018-06-29T08:17:11.806Z,17120.00
2018-06-29T08:18:11.828Z,17248.00
2018-06-29T08:19:11.861Z,17280.00
2018-06-29T08:20:11.881Z,17312.00
2018-06-29T08:21:11.908Z,17024.00
2018-06-29T08:22:11.925Z,17344.00
2018-06-29T08:23:11.953Z,17472.00
2018-06-29T08:24:11.977Z,17312.00
2018-06-29T08:25:12.000Z,17664.00
2018-06-29T08:26:12.020Z,17632.00
2018-06-29T08:27:12.038Z,17760.00
2018-06-29T08:28:12.071Z,18016.00
2018-06-29T08:29:13.866Z,17952.00
2018-06-29T08:30:12.116Z,18144.00
2018-06-29T08:31:12.190Z,18272.00
2018-06-29T08:32:12.158Z,18208.00
2018-06-29T08:33:12.184Z,18272.00
2018-06-29T08:34:12.243Z,18272.00
2018-06-29T08:35:12.229Z,18208.00
2018-06-29T08:36:12.256Z,18528.00
2018-06-29T08:37:12.283Z,18304.00
2018-06-29T08:38:12.309Z,17760.00
2018-06-29T08:39:12.331Z,18048.00
2018-06-29T08:40:12.351Z,18144.00
2018-06-29T08:41:12.380Z,18432.00
2018-06-29T08:42:12.398Z,17952.00
2018-06-29T08:43:12.423Z,17920.00
2018-06-29T08:44:12.501Z,18048.00
2018-06-29T08:45:12.471Z,18080.00
2018-06-29T08:46:12.500Z,18144.00
2018-06-29T08:47:12.516Z,17920.00
2018-06-29T08:48:12.541Z,17888.00
2018-06-29T08:49:12.566Z,17888.00
2018-06-29T08:50:12.585Z,17792.00
2018-06-29T08:51:12.617Z,17856.00
2018-06-29T08:52:12.637Z,17856.00
2018-06-29T08:53:12.680Z,17920.00
2018-06-29T08:54:12.683Z,18016.00
2018-06-29T08:55:12.709Z,17888.00
2018-06-29T08:56:12.730Z,17728.00
2018-06-29T08:57:12.790Z,17856.00
2018-06-29T08:58:12.784Z,17888.00
2018-06-29T08:59:12.797Z,17984.00
2018-06-29T09:00:12.824Z,18016.00
2018-06-29T09:01:12.852Z,17984.00
2018-06-29T09:02:12.875Z,17824.00
2018-06-29T09:03:12.902Z,17664.00
2018-06-29T09:04:12.947Z,17632.00
2018-06-29T09:05:12.949Z,17760.00
2018-06-29T09:06:12.971Z,17856.00
2018-06-29T09:07:12.987Z,17888.00
2018-06-29T09:08:13.019Z,17856.00
2018-06-29T09:09:13.033Z,17856.00
2018-06-29T09:10:13.066Z,17760.00
2018-06-29T09:11:13.084Z,17664.00
2018-06-29T09:12:13.109Z,17952.00
2018-06-29T09:13:13.132Z,17792.00
2018-06-29T09:14:13.155Z,17760.00
2018-06-29T09:15:13.178Z,17632.00
2018-06-29T09:16:13.205Z,17760.00
2018-06-29T09:17:13.244Z,17760.00
2018-06-29T09:18:13.253Z,17728.00
2018-06-29T09:19:13.274Z,17760.00
2018-06-29T09:20:14.878Z,17728.00
2018-06-29T09:21:13.317Z,17472.00
2018-06-29T09:22:13.342Z,17824.00
2018-06-29T09:23:13.366Z,17728.00
2018-06-29T09:24:13.391Z,17824.00
2018-06-29T09:25:13.422Z,17888.00
2018-06-29T09:26:13.439Z,17728.00
2018-06-29T09:27:13.469Z,17408.00
2018-06-29T09:28:13.489Z,18240.00
2018-06-29T09:29:13.516Z,18176.00
2018-06-29T09:30:13.542Z,17888.00
2018-06-29T09:31:13.563Z,18560.00
2018-06-29T09:32:13.583Z,18048.00
2018-06-29T09:33:13.615Z,17920.00
2018-06-29T09:34:13.630Z,18048.00
2018-06-29T09:35:13.663Z,18048.00
2018-06-29T09:36:13.721Z,18176.00
2018-06-29T09:37:13.710Z,18784.00
2018-06-29T09:38:13.735Z,19232.00
2018-06-29T09:39:13.750Z,19136.00
2018-06-29T09:40:13.776Z,19104.00
2018-06-29T09:41:13.804Z,19136.00
2018-06-29T09:42:13.828Z,19136.00
2018-06-29T09:43:13.850Z,19232.00
2018-06-29T09:44:13.869Z,19008.00
2018-06-29T09:45:13.906Z,18752.00
2018-06-29T09:46:13.921Z,18944.00
2018-06-29T09:47:13.946Z,18944.00
2018-06-29T09:48:13.999Z,18880.00
2018-06-29T09:49:14.002Z,18848.00
2018-06-29T09:50:14.025Z,18752.00
2018-06-29T09:51:14.040Z,18720.00
2018-06-29T09:52:14.073Z,18880.00
2018-06-29T09:53:14.898Z,18592.00
2018-06-29T09:54:14.117Z,18560.00
2018-06-29T09:55:14.145Z,18528.00
2018-06-29T09:56:14.170Z,18528.00
2018-06-29T09:57:14.191Z,18496.00
2018-06-29T09:58:14.209Z,18528.00
2018-06-29T09:59:14.251Z,18240.00
2018-06-29T10:00:14.325Z,18528.00
2018-06-29T10:01:14.299Z,18528.00
2018-06-29T10:02:14.314Z,18304.00
2018-06-29T10:03:14.332Z,18240.00
2018-06-29T10:04:14.357Z,18144.00
2018-06-29T10:05:14.387Z,18016.00
2018-06-29T10:06:14.405Z,17984.00
2018-06-29T10:07:14.433Z,17792.00
2018-06-29T10:08:14.458Z,17760.00
2018-06-29T10:09:14.475Z,17664.00
2018-06-29T10:10:14.503Z,17696.00
2018-06-29T10:11:14.525Z,17504.00
2018-06-29T10:12:14.549Z,17376.00
2018-06-29T10:13:14.572Z,17440.00
2018-06-29T10:14:14.730Z,16832.00
2018-06-29T10:15:14.619Z,17120.00
2018-06-29T10:16:14.643Z,16960.00
2018-06-29T10:17:14.676Z,17024.00
2018-06-29T10:18:14.692Z,16928.00
2018-06-29T10:19:14.719Z,16960.00
2018-06-29T10:20:14.789Z,16704.00
2018-06-29T10:21:14.760Z,16672.00
2018-06-29T10:22:14.843Z,16672.00
2018-06-29T10:23:14.809Z,16544.00
2018-06-29T10:24:14.855Z,16288.00
2018-06-29T10:25:14.874Z,16320.00
2018-06-29T10:26:14.882Z,16040.00
2018-06-29T10:27:14.909Z,16320.00
2018-06-29T10:28:15.016Z,16320.00
2018-06-29T10:29:14.960Z,16512.00
2018-06-29T10:30:14.977Z,16256.00
2018-06-29T10:31:15.011Z,15964.00
2018-06-29T10:32:15.023Z,16100.00
2018-06-29T10:33:15.056Z,16256.00
2018-06-29T10:34:15.071Z,16020.00
2018-06-29T10:35:15.103Z,16008.00
2018-06-29T10:36:15.118Z,15828.00
2018-06-29T10:37:15.149Z,15768.00
2018-06-29T10:38:15.170Z,15900.00
2018-06-29T10:39:15.199Z,15796.00
2018-06-29T10:40:15.213Z,15692.00
2018-06-29T10:41:15.241Z,15744.00
2018-06-29T10:42:15.262Z,15512.00
2018-06-29T10:43:15.292Z,15684.00
2018-06-29T10:44:15.308Z,15676.00
2018-06-29T10:45:15.337Z,15836.00
2018-06-29T10:46:15.356Z,16160.00
2018-06-29T10:47:15.383Z,16256.00
2018-06-29T10:48:15.402Z,16096.00
2018-06-29T10:49:15.445Z,15560.00
2018-06-29T10:50:15.451Z,14884.00
2018-06-29T10:51:15.478Z,15332.00
2018-06-29T10:52:15.498Z,14480.00
2018-06-29T10:53:15.527Z,14488.00
2018-06-29T10:54:15.546Z,14404.00
2018-06-29T10:55:15.574Z,14308.00
2018-06-29T10:56:15.589Z,14276.00
2018-06-29T10:57:15.671Z,14216.00
2018-06-29T10:58:15.643Z,14084.00
2018-06-29T10:59:15.657Z,14028.00
2018-06-29T11:00:15.683Z,14112.00
2018-06-29T11:01:15.702Z,13864.00
2018-06-29T11:02:15.734Z,13716.00
2018-06-29T11:03:15.762Z,13588.00
2018-06-29T11:04:15.780Z,13608.00
2018-06-29T11:05:15.805Z,13640.00
2018-06-29T11:06:15.822Z,13592.00
2018-06-29T11:07:15.848Z,13468.00
2018-06-29T11:08:15.858Z,13372.00
2018-06-29T11:09:17.471Z,13332.00
2018-06-29T11:10:15.926Z,13276.00
2018-06-29T11:11:15.933Z,13168.00
2018-06-29T11:12:15.960Z,13100.00
2018-06-29T11:13:15.972Z,13004.00
2018-06-29T11:14:15.993Z,12996.00
2018-06-29T11:15:16.024Z,12792.00
2018-06-29T11:16:16.037Z,13132.00
2018-06-29T11:17:16.065Z,12812.00
2018-06-29T11:18:16.098Z,12936.00
2018-06-29T11:19:16.110Z,12876.00
2018-06-29T11:20:16.128Z,12756.00
2018-06-29T11:21:16.156Z,12876.00
2018-06-29T11:22:16.171Z,12680.00
2018-06-29T11:23:16.688Z,12504.00
2018-06-29T11:24:16.222Z,12316.00
2018-06-29T11:25:16.235Z,12440.00
2018-06-29T11:26:16.262Z,12340.00
2018-06-29T11:27:16.280Z,12232.00
2018-06-29T11:28:16.298Z,12212.00
2018-06-29T11:29:16.329Z,12264.00
2018-06-29T11:30:16.405Z,12172.00
2018-06-29T11:31:16.363Z,12156.00
2018-06-29T11:32:16.392Z,12044.00
2018-06-29T11:33:16.507Z,12096.00
2018-06-29T11:34:16.936Z,12056.00
2018-06-29T11:35:16.448Z,11992.00
2018-06-29T11:36:16.473Z,11924.00
2018-06-29T11:37:16.493Z,11796.00
2018-06-29T11:38:16.512Z,11744.00
2018-06-29T11:39:16.539Z,11640.00
2018-06-29T11:40:16.553Z,11668.00
2018-06-29T11:41:16.580Z,11652.00
2018-06-29T11:42:16.598Z,11660.00
2018-06-29T11:43:16.622Z,11688.00
2018-06-29T11:44:16.730Z,11536.00
2018-06-29T11:45:16.660Z,11500.00
2018-06-29T11:46:16.677Z,11392.00
2018-06-29T11:47:16.703Z,11392.00
2018-06-29T11:48:16.723Z,11300.00
2018-06-29T11:49:16.737Z,11312.00
2018-06-29T11:50:16.760Z,11212.00
2018-06-29T11:51:16.793Z,11180.00
2018-06-29T11:52:16.801Z,10928.00
2018-06-29T11:53:16.815Z,10720.00
2018-06-29T11:54:16.838Z,8388.00
2018-06-29T11:55:16.858Z,5772.00
2018-06-29T11:56:16.874Z,4920.00
2018-06-29T11:57:16.899Z,4860.00
2018-06-29T11:58:16.910Z,4956.00
2018-06-29T11:59:16.936Z,4876.00
2018-06-29T12:00:16.945Z,4860.00
2018-06-29T12:01:16.971Z,4820.00
2018-06-29T12:02:16.989Z,4816.00
2018-06-29T12:03:16.999Z,4804.00
2018-06-29T12:04:17.025Z,4840.00
2018-06-29T12:05:17.042Z,4832.00
2018-06-29T12:06:17.057Z,4772.00
2018-06-29T12:07:17.167Z,4668.00
2018-06-29T12:08:17.089Z,4812.00
2018-06-29T12:09:17.102Z,4788.00
2018-06-29T12:10:17.115Z,4548.00
2018-06-29T12:11:17.133Z,4784.00